createdAt,value
2022-11-30T00:01:25.572Z,52.58
2022-11-30T00:03:58.410Z,47.67
2022-11-30T00:06:25.678Z,50.10
2022-11-30T00:09:01.700Z,54.78
2022-11-30T00:11:28.908Z,50.40
2022-11-30T00:13:55.690Z,51.15
2022-11-30T00:16:22.377Z,53.95
2022-11-30T00:18:49.186Z,48.72
2022-11-30T00:21:15.869Z,49.67
2022-11-30T00:23:43.712Z,42.53
2022-11-30T00:26:11.617Z,52.90
2022-11-30T00:28:38.867Z,52.67
2022-11-30T00:31:07.004Z,52.05
2022-11-30T00:33:35.102Z,50.03
2022-11-30T00:36:06.481Z,53.60
2022-11-30T00:38:35.584Z,54.30
2022-11-30T00:41:05.969Z,51.35
2022-11-30T00:43:32.740Z,53.83
2022-11-30T00:46:01.845Z,54.58
2022-11-30T00:48:28.653Z,39.55
2022-11-30T00:50:56.381Z,52.20
2022-11-30T00:53:23.220Z,51.65
2022-11-30T00:55:50.110Z,51.97
2022-11-30T00:58:20.063Z,45.03
2022-11-30T01:00:49.026Z,52.75
2022-11-30T01:03:15.755Z,50.80
2022-11-30T01:05:46.450Z,54.47
2022-11-30T01:08:13.280Z,51.67
2022-11-30T01:10:40.711Z,52.83
2022-11-30T01:13:07.599Z,57.70
2022-11-30T01:15:38.974Z,53.22
2022-11-30T01:18:12.333Z,57.58
2022-11-30T01:20:44.318Z,56.53
2022-11-30T01:23:12.213Z,59.83
2022-11-30T01:25:39.114Z,53.97
2022-11-30T01:28:06.449Z,57.20
2022-11-30T01:30:33.174Z,60.10
2022-11-30T01:33:06.301Z,53.10
2022-11-30T01:35:35.595Z,54.58
2022-11-30T01:38:02.538Z,54.97
2022-11-30T01:40:32.236Z,59.20
2022-11-30T01:42:59.023Z,58.13
2022-11-30T01:45:30.924Z,60.65
2022-11-30T01:47:59.218Z,64.47
2022-11-30T01:50:33.646Z,58.17
2022-11-30T01:53:05.013Z,57.88
2022-11-30T01:55:34.925Z,65.05
2022-11-30T01:58:04.334Z,66.38
2022-11-30T02:00:31.002Z,62.28
2022-11-30T02:03:36.619Z,59.97
2022-11-30T02:06:03.644Z,55.92
2022-11-30T02:08:34.287Z,59.65
2022-11-30T02:11:04.748Z,64.75
2022-11-30T02:13:37.488Z,60.08
2022-11-30T02:16:07.497Z,63.33
2022-11-30T02:18:38.935Z,61.47
2022-11-30T02:21:13.142Z,62.38
2022-11-30T02:23:49.538Z,56.80
2022-11-30T02:26:43.160Z,59.10
2022-11-30T02:29:27.744Z,59.13
2022-11-30T02:31:57.702Z,59.88
2022-11-30T02:34:26.441Z,60.75
2022-11-30T02:36:55.902Z,62.17
2022-11-30T02:39:23.070Z,63.95
2022-11-30T02:41:50.678Z,64.18
2022-11-30T02:44:18.344Z,61.85
2022-11-30T02:47:02.708Z,62.25
2022-11-30T02:49:33.116Z,60.78
2022-11-30T02:52:00.576Z,64.45
2022-11-30T02:54:29.694Z,60.88
2022-11-30T02:56:57.523Z,57.90
2022-11-30T02:59:24.093Z,61.03
2022-11-30T03:01:51.172Z,63.45
2022-11-30T03:04:39.662Z,62.47
2022-11-30T03:07:06.970Z,71.25
2022-11-30T03:09:36.864Z,63.50
2022-11-30T03:12:04.942Z,61.67
2022-11-30T03:14:31.766Z,68.65
2022-11-30T03:16:58.477Z,59.10
2022-11-30T03:19:28.887Z,66.72
2022-11-30T03:21:57.452Z,61.65
2022-11-30T03:24:29.917Z,60.50
2022-11-30T03:26:56.551Z,61.78
2022-11-30T03:29:23.197Z,65.85
2022-11-30T03:31:54.504Z,63.95
2022-11-30T03:34:27.829Z,65.75
2022-11-30T03:36:58.931Z,69.68
2022-11-30T03:39:25.584Z,64.80
2022-11-30T03:41:52.603Z,66.18
2022-11-30T03:44:20.976Z,63.55
2022-11-30T03:46:47.628Z,63.08
2022-11-30T03:49:15.245Z,64.32
2022-11-30T03:51:41.812Z,63.08
2022-11-30T03:54:08.369Z,66.88
2022-11-30T03:56:34.929Z,61.67
2022-11-30T03:59:04.355Z,57.95
2022-11-30T04:01:31.064Z,60.00
2022-11-30T04:03:58.302Z,56.83
2022-11-30T04:06:25.065Z,65.57
2022-11-30T04:08:54.217Z,63.25
2022-11-30T04:11:20.822Z,62.80
2022-11-30T04:13:49.850Z,62.05
2022-11-30T04:16:16.484Z,58.83
2022-11-30T04:18:45.305Z,58.67
2022-11-30T04:21:11.847Z,58.10
2022-11-30T04:23:40.048Z,63.10
2022-11-30T04:26:08.510Z,60.10
2022-11-30T04:28:35.414Z,60.67
2022-11-30T04:31:03.326Z,58.95
2022-11-30T04:33:33.151Z,57.20
2022-11-30T04:36:07.179Z,54.88
2022-11-30T04:38:34.307Z,61.05
2022-11-30T04:41:06.120Z,57.38
2022-11-30T04:43:34.382Z,49.72
2022-11-30T04:46:02.724Z,57.65
2022-11-30T04:48:29.413Z,54.63
2022-11-30T04:51:00.900Z,54.45
2022-11-30T04:53:27.633Z,50.80
2022-11-30T04:55:58.089Z,52.95
2022-11-30T04:58:25.019Z,55.33
2022-11-30T05:00:53.892Z,51.63
2022-11-30T05:03:20.558Z,54.67
2022-11-30T05:05:53.333Z,54.97
2022-11-30T05:08:22.017Z,55.95
2022-11-30T05:10:54.643Z,52.13
2022-11-30T05:13:25.353Z,51.30
2022-11-30T05:15:54.117Z,53.25
2022-11-30T05:18:21.148Z,51.60
2022-11-30T05:20:53.860Z,55.28
2022-11-30T05:23:20.727Z,58.50
2022-11-30T05:25:48.179Z,58.63
2022-11-30T05:28:15.803Z,53.28
2022-11-30T05:30:45.540Z,52.20
2022-11-30T05:33:14.421Z,54.83
2022-11-30T05:35:41.029Z,54.50
2022-11-30T05:38:09.874Z,54.33
2022-11-30T05:40:38.117Z,53.15
2022-11-30T05:43:05.648Z,54.72
2022-11-30T05:45:32.191Z,58.95
2022-11-30T05:47:58.950Z,52.28
2022-11-30T05:50:25.551Z,56.28
2022-11-30T05:53:00.033Z,55.38
2022-11-30T05:55:27.767Z,51.88
2022-11-30T05:57:54.455Z,59.05
2022-11-30T06:00:21.869Z,53.72
2022-11-30T06:02:48.626Z,58.50
2022-11-30T06:05:15.240Z,61.45
2022-11-30T06:07:43.617Z,71.38
2022-11-30T06:10:10.509Z,59.60
2022-11-30T06:12:37.227Z,56.45
2022-11-30T06:15:06.448Z,56.05
2022-11-30T06:17:38.164Z,56.60
2022-11-30T06:20:05.803Z,56.15
2022-11-30T06:22:34.828Z,62.10
2022-11-30T06:25:01.323Z,54.85
2022-11-30T06:27:31.818Z,54.42
2022-11-30T06:30:02.827Z,54.65
2022-11-30T06:32:29.368Z,56.95
2022-11-30T06:34:56.041Z,60.97
2022-11-30T06:37:22.653Z,57.28
2022-11-30T06:42:36.357Z,59.58
2022-11-30T06:45:03.344Z,61.70
2022-11-30T06:47:29.920Z,53.25
2022-11-30T06:49:58.870Z,57.67
2022-11-30T06:52:25.645Z,54.05
2022-11-30T06:54:53.951Z,49.35
2022-11-30T06:57:20.556Z,55.13
2022-11-30T06:59:49.092Z,51.97
2022-11-30T07:02:18.945Z,54.35
2022-11-30T07:04:46.560Z,45.53
2022-11-30T07:07:15.881Z,43.33
2022-11-30T07:09:44.945Z,51.70
2022-11-30T07:12:11.666Z,48.28
2022-11-30T07:14:40.629Z,45.28
2022-11-30T07:17:07.200Z,44.85
2022-11-30T07:19:36.683Z,47.28
2022-11-30T07:22:05.236Z,42.85
2022-11-30T07:24:51.677Z,42.05
2022-11-30T07:27:20.551Z,44.72
2022-11-30T07:29:49.155Z,45.45
2022-11-30T07:32:15.769Z,44.83
2022-11-30T07:34:42.286Z,50.60
2022-11-30T07:37:09.121Z,45.42
2022-11-30T07:39:35.680Z,45.13
2022-11-30T07:42:02.921Z,48.60
2022-11-30T07:44:29.761Z,49.00
2022-11-30T07:46:56.348Z,53.75
2022-11-30T07:49:25.912Z,49.83
2022-11-30T07:51:55.351Z,47.85
2022-11-30T07:54:22.801Z,51.15
2022-11-30T07:56:49.410Z,49.67
2022-11-30T07:59:15.962Z,51.60
2022-11-30T08:01:42.581Z,55.15
2022-11-30T08:04:09.342Z,50.45
2022-11-30T08:06:35.945Z,47.17
2022-11-30T08:09:05.525Z,52.85
2022-11-30T08:11:35.623Z,52.95
2022-11-30T08:14:05.068Z,54.50
2022-11-30T08:16:34.499Z,49.38
2022-11-30T08:19:04.201Z,53.08
2022-11-30T08:21:32.510Z,55.35
2022-11-30T08:23:59.263Z,53.83
2022-11-30T08:26:30.452Z,53.85
2022-11-30T08:29:00.460Z,60.50
2022-11-30T08:31:28.693Z,56.60
2022-11-30T08:33:57.152Z,57.33
2022-11-30T08:36:24.639Z,58.55
2022-11-30T08:38:54.184Z,53.85
2022-11-30T08:41:24.428Z,52.42
2022-11-30T08:43:57.141Z,57.63
2022-11-30T08:49:24.432Z,57.22
2022-11-30T08:54:43.007Z,53.80
2022-11-30T08:57:09.624Z,50.90
2022-11-30T08:59:36.115Z,55.10
2022-11-30T09:02:02.650Z,58.30
2022-11-30T09:04:29.186Z,51.60
2022-11-30T09:06:59.265Z,57.90
2022-11-30T09:09:26.076Z,58.88
2022-11-30T09:11:52.642Z,59.05
2022-11-30T09:14:19.181Z,57.58
2022-11-30T09:16:46.020Z,57.20
2022-11-30T09:19:15.114Z,61.92
2022-11-30T09:21:44.310Z,60.33
2022-11-30T09:24:15.918Z,56.42
2022-11-30T09:26:42.418Z,56.20
2022-11-30T09:29:08.925Z,56.60
2022-11-30T09:31:42.265Z,61.25
2022-11-30T09:34:12.783Z,59.90
2022-11-30T09:36:41.920Z,54.88
2022-11-30T09:39:19.297Z,58.60
2022-11-30T09:41:53.559Z,62.25
2022-11-30T09:44:31.339Z,59.78
2022-11-30T09:47:15.989Z,58.53
2022-11-30T09:49:50.167Z,62.22
2022-11-30T09:52:20.976Z,65.15
2022-11-30T09:54:48.261Z,63.75
2022-11-30T09:57:34.589Z,64.93
2022-11-30T10:00:03.174Z,63.17
2022-11-30T10:02:34.119Z,66.95
2022-11-30T10:05:03.291Z,69.65
2022-11-30T10:07:30.139Z,69.53
2022-11-30T10:10:23.599Z,69.35
2022-11-30T10:12:56.225Z,60.97
2022-11-30T10:15:31.928Z,59.55
2022-11-30T10:18:17.107Z,63.72
2022-11-30T10:20:56.789Z,62.88
2022-11-30T10:23:52.537Z,54.70
2022-11-30T10:26:28.148Z,58.05
2022-11-30T10:28:58.157Z,65.55
2022-11-30T10:31:36.352Z,66.50
2022-11-30T10:34:18.891Z,60.55
2022-11-30T10:39:55.506Z,58.13
2022-11-30T10:42:49.267Z,68.80
2022-11-30T10:45:23.251Z,62.03
2022-11-30T10:48:00.005Z,63.60
2022-11-30T10:50:29.393Z,62.90
2022-11-30T10:53:06.507Z,65.38
2022-11-30T10:55:40.750Z,66.90
2022-11-30T10:58:13.511Z,60.22
2022-11-30T11:00:42.431Z,64.47
2022-11-30T11:03:29.431Z,62.78
2022-11-30T11:06:22.542Z,64.40
2022-11-30T11:08:49.847Z,57.92
2022-11-30T11:11:36.397Z,53.92
2022-11-30T11:14:37.753Z,57.50
2022-11-30T11:17:20.132Z,54.15
2022-11-30T11:19:50.924Z,58.85
2022-11-30T11:22:31.365Z,53.97
2022-11-30T11:25:13.055Z,57.45
2022-11-30T11:27:45.030Z,57.53
2022-11-30T11:33:01.270Z,64.90
2022-11-30T11:35:35.716Z,53.92
2022-11-30T11:38:06.743Z,51.95
2022-11-30T11:40:36.596Z,49.00
2022-11-30T11:43:04.423Z,53.05
2022-11-30T11:45:38.738Z,44.75
2022-11-30T11:48:32.711Z,47.78
2022-11-30T11:51:08.584Z,45.95
2022-11-30T11:53:41.035Z,46.88
2022-11-30T11:56:25.888Z,46.78
2022-11-30T11:58:56.697Z,49.30
2022-11-30T12:01:39.738Z,44.70
2022-11-30T12:04:07.382Z,39.13
2022-11-30T12:06:37.098Z,37.60
2022-11-30T12:09:10.600Z,42.85
2022-11-30T12:11:45.283Z,41.65
2022-11-30T12:14:15.766Z,39.03
2022-11-30T12:16:57.589Z,40.15
2022-11-30T12:19:42.912Z,43.92
2022-11-30T12:22:09.499Z,41.50
2022-11-30T12:24:38.863Z,39.67
2022-11-30T12:27:20.940Z,43.70
2022-11-30T12:29:54.284Z,39.78
2022-11-30T12:32:20.814Z,37.45
2022-11-30T12:34:56.318Z,40.90
2022-11-30T12:37:32.399Z,35.35
2022-11-30T12:40:21.176Z,36.90
2022-11-30T12:42:54.799Z,35.97
2022-11-30T12:45:32.963Z,37.50
2022-11-30T12:48:22.201Z,35.75
2022-11-30T12:50:48.904Z,36.00
2022-11-30T12:53:20.582Z,39.20
2022-11-30T12:55:50.549Z,49.10
2022-11-30T12:58:21.317Z,38.25
2022-11-30T13:00:50.740Z,36.67
2022-11-30T13:03:22.256Z,36.60
2022-11-30T13:05:51.854Z,41.75
2022-11-30T13:08:30.685Z,36.20
2022-11-30T13:11:00.043Z,38.85
2022-11-30T13:13:29.650Z,41.20
2022-11-30T13:15:58.207Z,38.33
2022-11-30T13:18:25.022Z,32.30
2022-11-30T13:21:07.234Z,37.05
2022-11-30T13:26:08.592Z,33.88
2022-11-30T13:28:41.921Z,35.90
2022-11-30T13:31:26.072Z,36.90
2022-11-30T13:33:56.001Z,35.10
2022-11-30T13:36:37.188Z,33.53
2022-11-30T13:39:20.035Z,31.80
2022-11-30T13:41:48.268Z,39.92
2022-11-30T13:44:34.498Z,38.83
2022-11-30T13:47:22.303Z,35.22
2022-11-30T13:49:55.144Z,33.25
2022-11-30T13:52:41.723Z,32.17
2022-11-30T13:55:29.694Z,35.58
2022-11-30T13:57:56.282Z,35.30
2022-11-30T14:00:30.581Z,33.65
2022-11-30T14:03:17.100Z,35.20
2022-11-30T14:05:44.372Z,31.05
2022-11-30T14:08:12.876Z,37.85
2022-11-30T14:10:49.834Z,34.85
2022-11-30T14:13:27.455Z,33.20
2022-11-30T14:15:55.826Z,33.97
2022-11-30T14:18:48.011Z,32.60
2022-11-30T14:21:33.596Z,30.23
2022-11-30T14:24:23.748Z,33.63
2022-11-30T14:26:51.592Z,28.35
2022-11-30T14:29:31.226Z,31.75
2022-11-30T14:32:02.454Z,30.15
2022-11-30T14:34:33.994Z,29.73
2022-11-30T14:37:05.639Z,34.75
2022-11-30T14:39:36.897Z,35.13
2022-11-30T14:42:04.577Z,29.33
2022-11-30T14:44:40.328Z,31.88
2022-11-30T14:47:36.455Z,25.80
2022-11-30T14:50:06.196Z,27.80
2022-11-30T14:52:38.755Z,24.30
2022-11-30T14:55:18.020Z,27.45
2022-11-30T14:58:14.053Z,28.83
2022-11-30T15:00:42.599Z,25.35
2022-11-30T15:03:26.191Z,26.83
2022-11-30T15:06:05.179Z,28.08
2022-11-30T15:08:37.645Z,31.08
2022-11-30T15:11:23.173Z,35.20
2022-11-30T15:14:09.814Z,33.47
2022-11-30T15:16:39.383Z,30.13
2022-11-30T15:19:24.225Z,28.85
2022-11-30T15:21:51.966Z,31.38
2022-11-30T15:24:23.542Z,28.80
2022-11-30T15:27:10.685Z,38.30
2022-11-30T15:29:43.048Z,32.60
2022-11-30T15:32:17.142Z,32.95
2022-11-30T15:34:56.324Z,31.05
2022-11-30T15:37:34.065Z,30.98
2022-11-30T15:40:06.411Z,95.93
2022-11-30T15:42:40.953Z,31.63
2022-11-30T15:45:10.879Z,50.22
2022-11-30T15:47:41.204Z,30.98
2022-11-30T15:50:26.735Z,30.48
2022-11-30T15:53:01.305Z,32.28
2022-11-30T15:55:40.059Z,37.33
2022-11-30T15:58:22.394Z,38.05
2022-11-30T16:01:09.619Z,29.90
2022-11-30T16:03:56.292Z,28.85
2022-11-30T16:06:26.709Z,37.33
2022-11-30T16:09:01.403Z,35.20
2022-11-30T16:11:28.051Z,34.25
2022-11-30T16:13:54.773Z,31.55
2022-11-30T16:16:26.373Z,30.67
2022-11-30T16:19:00.663Z,35.05
2022-11-30T16:21:39.202Z,35.33
2022-11-30T16:24:15.424Z,44.85
2022-11-30T16:26:51.932Z,39.50
2022-11-30T16:29:19.059Z,37.47
2022-11-30T16:31:45.774Z,103.97
2022-11-30T16:34:12.384Z,59.60
2022-11-30T16:36:39.492Z,35.38
2022-11-30T16:39:12.191Z,35.30
2022-11-30T16:41:38.857Z,31.77
2022-11-30T16:44:13.462Z,35.83
2022-11-30T16:46:40.090Z,32.65
2022-11-30T16:49:11.262Z,76.25
2022-11-30T16:51:38.042Z,84.80
2022-11-30T16:54:15.841Z,32.97
2022-11-30T16:56:43.090Z,39.08
2022-11-30T16:59:16.265Z,60.83
2022-11-30T17:01:52.115Z,73.05
2022-11-30T17:04:26.376Z,40.17
2022-11-30T17:06:58.730Z,44.53
2022-11-30T17:09:27.514Z,36.85
2022-11-30T17:12:00.741Z,39.25
2022-11-30T17:14:30.150Z,50.83
2022-11-30T17:17:00.216Z,44.88
2022-11-30T17:19:27.182Z,41.10
2022-11-30T17:21:54.396Z,40.92
2022-11-30T17:24:21.124Z,40.13
2022-11-30T17:26:47.740Z,41.53
2022-11-30T17:29:14.359Z,49.80
2022-11-30T17:31:40.971Z,40.58
2022-11-30T17:34:09.094Z,54.70
2022-11-30T17:36:35.647Z,47.85
2022-11-30T17:39:11.407Z,43.15
2022-11-30T17:41:38.182Z,47.03
2022-11-30T17:44:04.798Z,43.47
2022-11-30T17:46:31.433Z,43.50
2022-11-30T17:49:00.646Z,39.75
2022-11-30T17:51:28.116Z,38.30
2022-11-30T17:53:57.860Z,40.65
2022-11-30T17:56:26.993Z,38.05
2022-11-30T17:58:53.589Z,40.70
2022-11-30T18:01:24.680Z,44.13
2022-11-30T18:03:52.802Z,45.80
2022-11-30T18:06:19.974Z,45.33
2022-11-30T18:08:48.004Z,41.10
2022-11-30T18:11:18.141Z,44.28
2022-11-30T18:13:44.704Z,39.97
2022-11-30T18:16:13.101Z,43.03
2022-11-30T18:18:45.771Z,45.10
2022-11-30T18:21:14.696Z,44.72
2022-11-30T18:23:41.349Z,43.58
2022-11-30T18:26:12.207Z,49.55
2022-11-30T18:28:42.594Z,41.45
2022-11-30T18:31:11.614Z,45.60
2022-11-30T18:33:41.242Z,47.00
2022-11-30T18:36:08.014Z,41.88
2022-11-30T18:38:38.957Z,42.25
2022-11-30T18:41:06.424Z,43.78
2022-11-30T18:43:34.100Z,42.63
2022-11-30T18:46:04.628Z,45.70
2022-11-30T18:48:31.323Z,44.03
2022-11-30T18:50:57.853Z,41.72
2022-11-30T18:53:24.590Z,44.10
2022-11-30T18:55:51.630Z,44.33
2022-11-30T18:58:18.125Z,42.28
2022-11-30T19:00:44.659Z,45.88
2022-11-30T19:03:11.158Z,42.63
2022-11-30T19:05:39.868Z,46.45
2022-11-30T19:08:07.912Z,42.20
2022-11-30T19:10:38.328Z,41.25
2022-11-30T19:13:05.321Z,43.67
2022-11-30T19:15:43.719Z,42.20
2022-11-30T19:18:11.341Z,46.35
2022-11-30T19:20:41.072Z,39.53
2022-11-30T19:23:07.867Z,47.83
2022-11-30T19:25:34.379Z,45.15
2022-11-30T19:28:02.070Z,45.58
2022-11-30T19:30:28.596Z,42.20
2022-11-30T19:32:55.165Z,39.53
2022-11-30T19:35:23.217Z,44.25
2022-11-30T19:37:51.542Z,43.22
2022-11-30T19:40:18.080Z,43.75
2022-11-30T19:42:46.883Z,39.65
2022-11-30T19:45:13.412Z,41.20
2022-11-30T19:47:39.943Z,40.67
2022-11-30T19:50:06.801Z,42.15
2022-11-30T19:52:36.378Z,37.17
2022-11-30T19:55:05.474Z,39.00
2022-11-30T19:57:31.962Z,42.15
2022-11-30T19:59:58.423Z,39.47
2022-11-30T20:02:24.937Z,38.58
2022-11-30T20:04:51.450Z,38.05
2022-11-30T20:07:18.050Z,40.42
2022-11-30T20:09:45.468Z,38.38
2022-11-30T20:12:13.971Z,36.95
2022-11-30T20:14:41.463Z,35.83
2022-11-30T20:17:08.860Z,38.70
2022-11-30T20:19:37.514Z,37.60
2022-11-30T20:22:12.612Z,36.58
2022-11-30T20:24:39.360Z,41.42
2022-11-30T20:27:10.193Z,38.67
2022-11-30T20:29:37.238Z,35.83
2022-11-30T20:32:06.882Z,44.90
2022-11-30T20:34:42.350Z,38.10
2022-11-30T20:37:19.841Z,40.90
2022-11-30T20:39:46.913Z,39.72
2022-11-30T20:42:16.376Z,44.50
2022-11-30T20:44:43.026Z,38.45
2022-11-30T20:47:11.426Z,37.15
2022-11-30T20:49:38.570Z,40.55
2022-11-30T20:52:05.358Z,39.15
2022-11-30T20:54:38.230Z,38.13
2022-11-30T20:57:07.954Z,38.95
2022-11-30T20:59:35.556Z,37.78
2022-11-30T21:02:04.602Z,43.63
2022-11-30T21:04:32.412Z,39.25
2022-11-30T21:07:03.009Z,36.53
2022-11-30T21:09:29.578Z,39.97
2022-11-30T21:11:57.312Z,37.20
2022-11-30T21:14:23.888Z,40.03
2022-11-30T21:16:50.778Z,39.00
2022-11-30T21:19:18.116Z,40.92
2022-11-30T21:21:46.833Z,39.80
2022-11-30T21:24:14.444Z,39.92
2022-11-30T21:26:48.569Z,41.85
2022-11-30T21:29:16.511Z,39.63
2022-11-30T21:31:45.382Z,33.10
2022-11-30T21:34:15.175Z,37.92
2022-11-30T21:36:46.639Z,38.60
2022-11-30T21:39:15.348Z,43.63
2022-11-30T21:41:42.399Z,42.22
2022-11-30T21:44:13.210Z,43.63
2022-11-30T21:46:40.245Z,40.13
2022-11-30T21:49:07.333Z,38.25
2022-11-30T21:51:37.611Z,43.20
2022-11-30T21:54:05.283Z,44.60
2022-11-30T21:56:33.454Z,45.42
2022-11-30T21:59:00.334Z,41.05
2022-11-30T22:01:34.608Z,42.88
2022-11-30T22:04:11.293Z,43.47
2022-11-30T22:06:41.925Z,45.42
2022-11-30T22:09:13.697Z,42.22
2022-11-30T22:11:41.113Z,43.00
2022-11-30T22:14:10.272Z,41.38
2022-11-30T22:16:36.983Z,42.20
2022-11-30T22:19:07.152Z,45.90
2022-11-30T22:21:33.748Z,40.85
2022-11-30T22:24:10.800Z,43.05
2022-11-30T22:26:41.393Z,45.38
2022-11-30T22:29:14.167Z,42.58
2022-11-30T22:31:44.624Z,44.67
2022-11-30T22:34:11.616Z,41.80
2022-11-30T22:36:39.519Z,38.65
2022-11-30T22:39:17.013Z,45.25
2022-11-30T22:41:45.332Z,42.33
2022-11-30T22:44:17.257Z,43.50
2022-11-30T22:46:46.990Z,46.85
2022-11-30T22:49:20.755Z,44.75
2022-11-30T22:51:50.142Z,47.72
2022-11-30T22:54:17.080Z,43.22
2022-11-30T22:56:48.212Z,46.00
2022-11-30T22:59:16.171Z,47.63
2022-11-30T23:01:50.561Z,44.10
2022-11-30T23:04:20.605Z,49.95
2022-11-30T23:06:51.338Z,47.05
2022-11-30T23:09:19.980Z,46.78
2022-11-30T23:11:47.525Z,44.00
2022-11-30T23:14:16.772Z,42.08
2022-11-30T23:16:44.183Z,40.20
2022-11-30T23:19:11.276Z,40.10
2022-11-30T23:21:43.222Z,47.13
2022-11-30T23:26:39.889Z,45.15
2022-11-30T23:29:11.864Z,43.92
2022-11-30T23:34:09.496Z,44.70
2022-11-30T23:36:39.589Z,42.80
2022-11-30T23:39:09.038Z,43.65
2022-11-30T23:41:38.130Z,38.17
2022-11-30T23:44:05.226Z,41.10
2022-11-30T23:46:42.393Z,41.20
2022-11-30T23:49:09.169Z,42.05
2022-11-30T23:51:38.698Z,44.28
2022-11-30T23:54:05.390Z,39.92
2022-11-30T23:56:33.189Z,40.53
2022-11-30T23:59:00.082Z,41.60
